createdAt,value
2023-10-10T00:00:24.307Z,6.90
2023-10-10T00:03:11.321Z,5.90
2023-10-10T00:05:40.098Z,6.60
2023-10-10T00:08:11.006Z,5.80
2023-10-10T00:10:51.512Z,6.70
2023-10-10T00:13:20.067Z,8.80
2023-10-10T00:15:52.394Z,5.90
2023-10-10T00:18:20.340Z,6.60
2023-10-10T00:21:06.834Z,5.90
2023-10-10T00:23:47.684Z,5.90
2023-10-10T00:26:22.048Z,7.40
2023-10-10T00:28:56.612Z,6.20
2023-10-10T00:31:25.001Z,5.60
2023-10-10T00:33:51.890Z,8.20
2023-10-10T00:36:23.056Z,6.60
2023-10-10T00:39:05.953Z,5.90
2023-10-10T00:41:44.677Z,5.10
2023-10-10T00:44:15.343Z,4.80
2023-10-10T00:46:42.622Z,8.00
2023-10-10T00:49:17.550Z,6.20
2023-10-10T00:51:47.890Z,4.90
2023-10-10T00:54:22.139Z,4.50
2023-10-10T00:56:54.989Z,5.20
2023-10-10T00:59:44.897Z,4.70
2023-10-10T01:02:21.393Z,5.00
2023-10-10T01:04:49.667Z,3.90
2023-10-10T01:07:19.347Z,6.20
2023-10-10T01:10:08.731Z,5.20
2023-10-10T01:12:40.138Z,4.40
2023-10-10T01:15:34.967Z,7.10
2023-10-10T01:18:01.641Z,6.20
2023-10-10T01:20:36.863Z,5.40
2023-10-10T01:23:04.166Z,4.80
2023-10-10T01:25:33.808Z,5.00
2023-10-10T01:28:03.710Z,5.10
2023-10-10T01:30:50.574Z,6.30
2023-10-10T01:33:17.743Z,6.00
2023-10-10T01:35:45.019Z,9.80
2023-10-10T01:38:42.026Z,7.20
2023-10-10T01:41:31.717Z,5.90
2023-10-10T01:44:09.475Z,7.60
2023-10-10T01:46:36.669Z,6.10
2023-10-10T01:49:03.533Z,6.10
2023-10-10T01:51:33.832Z,7.20
2023-10-10T01:54:06.797Z,6.60
2023-10-10T01:56:33.468Z,7.00
2023-10-10T01:59:03.493Z,7.20
2023-10-10T02:01:32.463Z,11.80
2023-10-10T02:03:59.250Z,8.80
2023-10-10T02:06:28.915Z,9.40
2023-10-10T02:09:15.117Z,9.70
2023-10-10T02:11:51.040Z,7.90
2023-10-10T02:14:19.894Z,9.80
2023-10-10T02:16:49.801Z,7.30
2023-10-10T02:19:17.147Z,7.40
2023-10-10T02:21:48.487Z,6.60
2023-10-10T02:24:31.050Z,8.50
2023-10-10T02:26:58.016Z,9.80
2023-10-10T02:29:33.799Z,8.70
2023-10-10T02:32:11.637Z,7.60
2023-10-10T02:34:39.343Z,8.50
2023-10-10T02:37:35.547Z,9.20
2023-10-10T02:40:15.645Z,9.40
2023-10-10T02:42:50.835Z,8.10
2023-10-10T02:47:56.018Z,10.60
2023-10-10T02:50:44.090Z,10.80
2023-10-10T02:53:11.251Z,8.80
2023-10-10T02:55:42.177Z,8.70
2023-10-10T02:58:21.779Z,8.60
2023-10-10T03:00:58.093Z,8.60
2023-10-10T03:03:25.896Z,10.20
2023-10-10T03:05:54.710Z,8.30
2023-10-10T03:08:35.939Z,9.40
2023-10-10T03:11:15.080Z,7.40
2023-10-10T03:13:45.437Z,12.10
2023-10-10T03:16:18.345Z,6.40
2023-10-10T03:19:01.342Z,7.10
2023-10-10T03:21:47.653Z,7.30
2023-10-10T03:24:28.304Z,5.60
2023-10-10T03:27:00.376Z,8.10
2023-10-10T03:29:39.322Z,7.10
2023-10-10T03:32:20.550Z,9.90
2023-10-10T03:35:13.548Z,7.40
2023-10-10T03:37:42.199Z,8.90
2023-10-10T03:40:22.792Z,7.60
2023-10-10T03:43:08.641Z,8.10
2023-10-10T03:45:54.309Z,8.60
2023-10-10T03:48:39.668Z,6.30
2023-10-10T03:51:27.930Z,7.80
2023-10-10T03:54:15.794Z,6.50
2023-10-10T03:57:00.794Z,7.80
2023-10-10T03:59:46.970Z,5.60
2023-10-10T04:02:32.388Z,9.30
2023-10-10T04:05:27.304Z,6.30
2023-10-10T04:08:14.052Z,7.30
2023-10-10T04:11:05.714Z,6.60
2023-10-10T04:13:51.746Z,5.40
2023-10-10T04:16:37.555Z,6.20
2023-10-10T04:19:23.128Z,6.50
2023-10-10T04:22:08.386Z,4.40
2023-10-10T04:24:54.085Z,8.20
2023-10-10T04:30:25.132Z,4.00
2023-10-10T04:33:10.717Z,4.90
2023-10-10T04:38:41.513Z,5.70
2023-10-10T04:41:33.354Z,7.30
2023-10-10T04:44:19.155Z,7.90
2023-10-10T04:47:04.738Z,6.20
2023-10-10T04:52:35.891Z,5.90
2023-10-10T04:55:21.359Z,8.30
2023-10-10T04:58:07.142Z,7.70
2023-10-10T05:00:52.352Z,8.50
2023-10-10T05:03:38.050Z,7.90
2023-10-10T05:09:08.960Z,6.90
2023-10-10T05:11:54.611Z,8.10
2023-10-10T05:14:40.177Z,8.00
2023-10-10T05:17:25.316Z,7.90
2023-10-10T05:20:10.971Z,7.50
2023-10-10T05:25:23.673Z,9.70
2023-10-10T05:27:51.978Z,7.90
2023-10-10T05:30:25.861Z,7.60
2023-10-10T05:33:04.305Z,6.00
2023-10-10T05:35:37.417Z,6.30
2023-10-10T05:38:07.761Z,9.00
2023-10-10T05:40:34.541Z,8.60
2023-10-10T05:43:03.433Z,8.80
2023-10-10T05:45:30.892Z,9.00
2023-10-10T05:47:58.072Z,10.50
2023-10-10T05:50:25.069Z,9.40
2023-10-10T05:52:52.293Z,10.00
2023-10-10T05:55:19.096Z,10.30
2023-10-10T05:57:46.654Z,7.90
2023-10-10T06:00:14.640Z,7.70
2023-10-10T06:02:47.875Z,10.60
2023-10-10T06:05:18.321Z,6.20
2023-10-10T06:07:45.074Z,10.50
2023-10-10T06:10:19.346Z,7.20
2023-10-10T06:12:49.044Z,8.10
2023-10-10T06:15:19.860Z,8.60
2023-10-10T06:17:52.187Z,10.60
2023-10-10T06:20:22.295Z,8.30
2023-10-10T06:22:49.240Z,8.90
2023-10-10T06:25:19.183Z,8.30
2023-10-10T06:27:46.709Z,8.80
2023-10-10T06:30:19.972Z,11.30
2023-10-10T06:32:50.020Z,10.10
2023-10-10T06:35:21.003Z,8.60
2023-10-10T06:37:54.374Z,8.10
2023-10-10T06:40:25.829Z,10.10
2023-10-10T06:43:08.255Z,10.80
2023-10-10T06:45:35.241Z,8.30
2023-10-10T06:48:02.211Z,8.20
2023-10-10T06:50:32.675Z,9.30
2023-10-10T06:53:01.078Z,8.20
2023-10-10T06:55:45.909Z,11.60
2023-10-10T06:58:14.758Z,8.10
2023-10-10T07:00:45.682Z,7.70
2023-10-10T07:03:19.604Z,7.30
2023-10-10T07:05:46.917Z,8.50
2023-10-10T07:08:14.401Z,7.60
2023-10-10T07:10:46.239Z,7.50
2023-10-10T07:13:14.453Z,10.60
2023-10-10T07:15:43.085Z,6.80
2023-10-10T07:18:14.742Z,8.20
2023-10-10T07:21:04.275Z,8.80
2023-10-10T07:23:39.932Z,8.40
2023-10-10T07:26:21.913Z,8.10
2023-10-10T07:28:50.597Z,6.40
2023-10-10T07:31:19.433Z,10.90
2023-10-10T07:33:56.173Z,7.30
2023-10-10T07:36:28.328Z,8.10
2023-10-10T07:39:16.283Z,7.90
2023-10-10T07:41:45.824Z,8.00
2023-10-10T07:44:22.927Z,6.70
2023-10-10T07:47:28.906Z,8.70
2023-10-10T07:49:56.755Z,9.30
2023-10-10T07:52:23.743Z,11.30
2023-10-10T07:54:54.511Z,10.00
2023-10-10T07:57:29.202Z,6.50
2023-10-10T07:59:58.092Z,6.80
2023-10-10T08:02:27.620Z,7.70
2023-10-10T08:04:55.804Z,7.10
2023-10-10T08:07:26.843Z,8.40
2023-10-10T08:10:13.894Z,7.50
2023-10-10T08:12:43.901Z,5.70
2023-10-10T08:15:20.952Z,9.40
2023-10-10T08:17:55.582Z,9.10
2023-10-10T08:21:00.653Z,7.50
2023-10-10T08:23:27.950Z,10.40
2023-10-10T08:25:54.937Z,5.30
2023-10-10T08:28:21.817Z,8.80
2023-10-10T08:30:53.658Z,15.20
2023-10-10T08:33:20.698Z,9.90
2023-10-10T08:35:50.687Z,7.60
2023-10-10T08:38:22.011Z,6.40
2023-10-10T08:40:59.048Z,9.90
2023-10-10T08:43:29.262Z,14.10
2023-10-10T08:45:57.795Z,24.60
2023-10-10T08:48:27.537Z,20.20
2023-10-10T08:50:55.425Z,18.10
2023-10-10T08:53:25.698Z,24.00
2023-10-10T08:55:56.995Z,20.30
2023-10-10T08:58:23.677Z,16.80
2023-10-10T09:00:51.724Z,16.80
2023-10-10T09:03:19.217Z,17.60
2023-10-10T09:05:48.267Z,9.90
2023-10-10T09:08:15.046Z,12.20
2023-10-10T09:10:43.914Z,13.90
2023-10-10T09:13:10.740Z,10.70
2023-10-10T09:15:41.388Z,13.10
2023-10-10T09:18:22.720Z,10.10
2023-10-10T09:20:53.966Z,10.70
2023-10-10T09:23:25.016Z,6.20
2023-10-10T09:26:30.451Z,6.70
2023-10-10T09:28:59.577Z,5.60
2023-10-10T09:31:27.413Z,6.30
2023-10-10T09:33:58.378Z,7.60
2023-10-10T09:36:28.417Z,8.20
2023-10-10T09:39:09.130Z,6.50
2023-10-10T09:41:36.996Z,6.80
2023-10-10T09:44:21.803Z,10.10
2023-10-10T09:47:07.785Z,3.80
2023-10-10T09:49:55.730Z,3.70
2023-10-10T09:52:42.910Z,4.70
2023-10-10T09:55:14.491Z,3.90
2023-10-10T09:58:00.642Z,5.00
2023-10-10T10:00:46.312Z,5.60
2023-10-10T10:03:27.683Z,3.80
2023-10-10T10:06:00.944Z,3.90
2023-10-10T10:08:42.396Z,3.20
2023-10-10T10:11:20.346Z,2.40
2023-10-10T10:14:17.923Z,2.30
2023-10-10T10:17:19.480Z,2.60
2023-10-10T10:19:49.122Z,3.90
2023-10-10T10:22:18.426Z,2.90
2023-10-10T10:24:46.235Z,4.30
2023-10-10T10:27:36.051Z,2.80
2023-10-10T10:30:20.544Z,2.00
2023-10-10T10:35:37.866Z,3.30
2023-10-10T10:38:07.624Z,2.90
2023-10-10T10:40:41.111Z,2.20
2023-10-10T10:43:15.318Z,1.80
2023-10-10T10:46:08.971Z,1.90
2023-10-10T10:48:36.501Z,2.00
2023-10-10T10:51:23.249Z,1.90
2023-10-10T10:53:59.828Z,1.30
2023-10-10T10:56:32.548Z,1.60
2023-10-10T10:59:13.627Z,2.90
2023-10-10T11:01:46.395Z,1.40
2023-10-10T11:04:25.663Z,3.00
2023-10-10T11:07:04.800Z,2.30
2023-10-10T11:09:35.155Z,1.30
2023-10-10T11:12:09.934Z,5.00
2023-10-10T11:14:50.627Z,1.30
2023-10-10T11:17:18.649Z,1.60
2023-10-10T11:19:47.613Z,2.10
2023-10-10T11:22:53.524Z,1.90
2023-10-10T11:25:30.266Z,2.20
2023-10-10T11:28:04.244Z,1.40
2023-10-10T11:30:34.685Z,1.50
2023-10-10T11:33:18.098Z,1.10
2023-10-10T11:36:02.036Z,2.10
2023-10-10T11:38:36.925Z,3.60
2023-10-10T11:41:09.960Z,3.40
2023-10-10T11:44:02.253Z,1.20
2023-10-10T11:46:31.689Z,1.30
2023-10-10T11:49:00.698Z,1.00
2023-10-10T11:51:38.875Z,1.30
2023-10-10T11:54:05.913Z,1.20
2023-10-10T11:56:34.884Z,2.40
2023-10-10T11:59:10.530Z,1.80
2023-10-10T12:01:52.067Z,4.90
2023-10-10T12:04:31.146Z,3.30
2023-10-10T12:07:00.160Z,1.60
2023-10-10T12:09:29.225Z,1.80
2023-10-10T12:12:00.140Z,1.60
2023-10-10T12:14:30.039Z,4.20
2023-10-10T12:16:58.671Z,2.60
2023-10-10T12:19:28.624Z,2.30
2023-10-10T12:21:56.416Z,3.00
2023-10-10T12:24:24.016Z,1.90
2023-10-10T12:26:54.714Z,2.90
2023-10-10T12:29:24.304Z,2.00
2023-10-10T12:31:56.258Z,3.30
2023-10-10T12:34:24.572Z,3.20
2023-10-10T12:37:00.076Z,2.80
2023-10-10T12:39:28.441Z,2.80
2023-10-10T12:41:58.038Z,3.70
2023-10-10T12:44:25.163Z,5.20
2023-10-10T12:46:55.351Z,2.30
2023-10-10T12:49:29.578Z,1.70
2023-10-10T12:51:57.787Z,2.10
2023-10-10T12:54:35.278Z,2.90
2023-10-10T12:57:06.554Z,2.30
2023-10-10T12:59:34.952Z,3.70
2023-10-10T13:02:04.239Z,2.80
2023-10-10T13:04:36.830Z,4.30
2023-10-10T13:07:04.264Z,3.70
2023-10-10T13:09:33.008Z,3.80
2023-10-10T13:12:03.102Z,2.40
2023-10-10T13:14:33.272Z,1.90
2023-10-10T13:17:38.669Z,2.80
2023-10-10T13:20:06.003Z,2.30
2023-10-10T13:22:32.751Z,2.80
2023-10-10T13:24:59.498Z,1.90
2023-10-10T13:27:26.361Z,4.50
2023-10-10T13:29:53.068Z,2.30
2023-10-10T13:32:20.887Z,2.50
2023-10-10T13:34:47.804Z,2.50
2023-10-10T13:37:14.427Z,3.60
2023-10-10T13:39:44.322Z,2.50
2023-10-10T13:42:14.928Z,2.20
2023-10-10T13:44:42.545Z,4.50
2023-10-10T13:47:09.870Z,3.30
2023-10-10T13:49:44.705Z,3.40
2023-10-10T13:52:17.175Z,1.70
2023-10-10T13:54:44.087Z,2.50
2023-10-10T13:57:10.830Z,2.00
2023-10-10T13:59:38.110Z,2.80
2023-10-10T14:02:08.950Z,2.80
2023-10-10T14:04:49.352Z,2.40
2023-10-10T14:07:16.173Z,1.90
2023-10-10T14:10:02.331Z,2.40
2023-10-10T14:12:32.345Z,3.90
2023-10-10T14:14:59.237Z,2.60
2023-10-10T14:17:25.937Z,2.00
2023-10-10T14:19:53.407Z,2.60
2023-10-10T14:22:23.470Z,1.90
2023-10-10T14:24:51.355Z,2.70
2023-10-10T14:27:20.724Z,5.50
2023-10-10T14:29:49.083Z,2.70
2023-10-10T14:32:30.818Z,2.00
2023-10-10T14:35:03.775Z,2.40
2023-10-10T14:37:45.594Z,3.30
2023-10-10T14:40:19.252Z,2.20
2023-10-10T14:42:45.999Z,2.60
2023-10-10T14:45:13.472Z,4.40
2023-10-10T14:47:44.207Z,3.00
2023-10-10T14:50:13.627Z,4.30
2023-10-10T14:52:50.322Z,2.40
2023-10-10T14:55:28.212Z,3.00
2023-10-10T14:57:56.828Z,3.30
2023-10-10T15:00:26.148Z,5.40
2023-10-10T15:02:54.206Z,6.70
2023-10-10T15:05:26.009Z,1.70
2023-10-10T15:07:54.383Z,2.40
2023-10-10T15:10:26.121Z,4.40
2023-10-10T15:12:53.932Z,2.80
2023-10-10T15:15:22.966Z,2.30
2023-10-10T15:17:50.616Z,3.60
2023-10-10T15:20:17.660Z,3.30
2023-10-10T15:22:44.773Z,2.30
2023-10-10T15:25:13.724Z,3.00
2023-10-10T15:27:41.708Z,5.60
2023-10-10T15:30:09.256Z,4.20
2023-10-10T15:32:47.113Z,3.40
2023-10-10T15:35:16.064Z,8.00
2023-10-10T15:37:43.157Z,4.70
2023-10-10T15:40:21.420Z,6.40
2023-10-10T15:42:52.453Z,6.50
2023-10-10T15:45:22.321Z,5.50
2023-10-10T15:47:50.630Z,7.50
2023-10-10T15:50:17.604Z,6.90
2023-10-10T15:52:50.644Z,5.70
2023-10-10T15:55:24.577Z,6.40
2023-10-10T15:57:53.020Z,9.90
2023-10-10T16:00:34.360Z,6.40
2023-10-10T16:03:07.184Z,6.50
2023-10-10T16:05:42.030Z,13.50
2023-10-10T16:08:10.058Z,6.00
2023-10-10T16:10:39.522Z,6.20
2023-10-10T16:13:08.292Z,6.40
2023-10-10T16:15:37.119Z,7.00
2023-10-10T16:18:04.871Z,9.30
2023-10-10T16:20:35.893Z,5.30
2023-10-10T16:23:02.858Z,7.20
2023-10-10T16:25:29.410Z,5.50
2023-10-10T16:27:58.301Z,5.60
2023-10-10T16:30:25.132Z,6.80
2023-10-10T16:32:51.959Z,6.70
2023-10-10T16:35:21.334Z,7.00
2023-10-10T16:37:49.471Z,7.90
2023-10-10T16:40:17.769Z,6.60
2023-10-10T16:42:45.948Z,7.20
2023-10-10T16:45:12.797Z,17.70
2023-10-10T16:47:43.854Z,7.50
2023-10-10T16:50:10.911Z,7.80
2023-10-10T16:52:41.220Z,11.10
2023-10-10T16:55:12.895Z,17.30
2023-10-10T16:57:41.057Z,10.40
2023-10-10T17:00:15.888Z,7.70
2023-10-10T17:02:46.750Z,8.10
2023-10-10T17:05:14.467Z,11.70
2023-10-10T17:07:44.207Z,12.90
2023-10-10T17:10:16.920Z,12.40
2023-10-10T17:12:44.533Z,12.60
2023-10-10T17:15:22.088Z,10.80
2023-10-10T17:17:49.670Z,11.70
2023-10-10T17:20:16.708Z,9.20
2023-10-10T17:22:51.159Z,13.00
2023-10-10T17:25:18.403Z,17.10
2023-10-10T17:27:46.844Z,13.40
2023-10-10T17:30:15.018Z,13.40
2023-10-10T17:32:43.115Z,10.20
2023-10-10T17:35:11.655Z,14.20
2023-10-10T17:37:41.347Z,11.80
2023-10-10T17:40:14.282Z,9.30
2023-10-10T17:42:49.379Z,16.20
2023-10-10T17:45:17.019Z,8.50
2023-10-10T17:47:43.800Z,9.20
2023-10-10T17:50:12.624Z,10.60
2023-10-10T17:52:43.135Z,7.90
2023-10-10T17:55:10.384Z,10.80
2023-10-10T17:57:36.973Z,9.70
2023-10-10T18:00:14.144Z,10.10
2023-10-10T18:02:46.133Z,12.20
2023-10-10T18:05:15.206Z,10.80
2023-10-10T18:07:44.120Z,8.90
2023-10-10T18:10:13.978Z,7.80
2023-10-10T18:12:41.464Z,8.00
2023-10-10T18:15:10.751Z,8.40
2023-10-10T18:17:39.962Z,7.80
2023-10-10T18:20:15.390Z,8.20
2023-10-10T18:22:46.296Z,9.20
2023-10-10T18:25:13.999Z,6.00
2023-10-10T18:27:47.490Z,8.00
2023-10-10T18:30:19.874Z,8.00
2023-10-10T18:32:53.421Z,7.60
2023-10-10T18:35:27.043Z,7.50
2023-10-10T18:37:53.833Z,7.30
2023-10-10T18:40:20.898Z,9.50
2023-10-10T18:42:48.764Z,11.00
2023-10-10T18:45:16.841Z,8.00
2023-10-10T18:47:48.311Z,9.50
2023-10-10T18:50:21.213Z,10.30
2023-10-10T18:55:26.682Z,11.00
2023-10-10T18:58:00.796Z,11.40
2023-10-10T19:00:29.298Z,15.00
2023-10-10T19:02:57.174Z,11.40
2023-10-10T19:05:28.330Z,10.90
2023-10-10T19:07:57.997Z,12.40
2023-10-10T19:10:26.691Z,11.40
2023-10-10T19:12:55.131Z,12.60
2023-10-10T19:15:26.771Z,12.00
2023-10-10T19:17:59.576Z,11.90
2023-10-10T19:20:33.232Z,12.70
2023-10-10T19:23:01.534Z,12.40
2023-10-10T19:25:29.995Z,12.40
2023-10-10T19:27:58.699Z,13.20
2023-10-10T19:30:29.928Z,12.60
2023-10-10T19:32:58.006Z,12.80
2023-10-10T19:35:28.342Z,12.90
2023-10-10T19:37:55.930Z,13.00
2023-10-10T19:40:28.469Z,11.50
2023-10-10T19:42:56.889Z,14.10
2023-10-10T19:45:28.953Z,12.10
2023-10-10T19:48:02.949Z,12.00
2023-10-10T19:50:31.370Z,11.70
2023-10-10T19:52:58.336Z,13.00
2023-10-10T19:55:25.673Z,10.70
2023-10-10T19:57:52.481Z,9.80
2023-10-10T20:00:22.618Z,11.00
2023-10-10T20:02:57.276Z,12.40
2023-10-10T20:05:24.608Z,11.90
2023-10-10T20:07:54.394Z,13.40
2023-10-10T20:10:22.900Z,12.60
2023-10-10T20:12:54.866Z,11.00
2023-10-10T20:15:28.658Z,10.20
2023-10-10T20:17:59.243Z,12.30
2023-10-10T20:20:27.021Z,11.20
2023-10-10T20:22:57.647Z,12.10
2023-10-10T20:25:31.510Z,12.80
2023-10-10T20:28:02.685Z,8.10
2023-10-10T20:30:35.505Z,10.70
2023-10-10T20:33:05.471Z,9.50
2023-10-10T20:35:33.190Z,10.30
2023-10-10T20:38:06.212Z,12.30
2023-10-10T20:40:35.525Z,11.70
2023-10-10T20:43:08.085Z,9.20
2023-10-10T20:45:35.696Z,11.40
2023-10-10T20:48:09.033Z,11.20
2023-10-10T20:50:41.093Z,10.70
2023-10-10T20:53:12.283Z,10.50
2023-10-10T20:55:39.141Z,7.70
2023-10-10T20:58:05.696Z,12.90
2023-10-10T21:00:35.049Z,10.20
2023-10-10T21:03:06.329Z,14.00
2023-10-10T21:05:36.468Z,12.20
2023-10-10T21:08:04.167Z,11.50
2023-10-10T21:10:31.169Z,12.50
2023-10-10T21:12:58.343Z,10.40
2023-10-10T21:15:25.264Z,9.70
2023-10-10T21:17:54.004Z,10.10
2023-10-10T21:20:28.550Z,10.20
2023-10-10T21:23:00.340Z,8.50
2023-10-10T21:25:27.255Z,7.90
2023-10-10T21:27:56.954Z,12.30
2023-10-10T21:30:28.795Z,11.00
2023-10-10T21:32:57.188Z,9.00
2023-10-10T21:35:30.356Z,9.20
2023-10-10T21:38:02.531Z,8.30
2023-10-10T21:40:31.945Z,10.30
2023-10-10T21:43:00.058Z,9.80
2023-10-10T21:45:32.610Z,8.90
2023-10-10T21:47:59.416Z,11.20
2023-10-10T21:50:26.431Z,9.30
2023-10-10T21:52:53.102Z,11.80
2023-10-10T21:55:21.778Z,7.40
2023-10-10T21:57:57.579Z,10.10
2023-10-10T22:00:31.922Z,11.80
2023-10-10T22:03:05.918Z,8.80
2023-10-10T22:05:34.976Z,8.40
2023-10-10T22:08:06.980Z,8.20
2023-10-10T22:10:35.701Z,10.10
2023-10-10T22:13:04.391Z,7.60
2023-10-10T22:15:35.197Z,9.00
2023-10-10T22:18:04.795Z,8.70
2023-10-10T22:20:34.610Z,10.90
2023-10-10T22:23:01.626Z,8.30
2023-10-10T22:25:32.529Z,9.40
2023-10-10T22:28:01.112Z,8.90
2023-10-10T22:30:33.004Z,8.40
2023-10-10T22:32:59.828Z,8.90
2023-10-10T22:35:29.130Z,9.20
2023-10-10T22:37:56.628Z,9.30
2023-10-10T22:40:27.294Z,9.00
2023-10-10T22:42:55.722Z,8.80
2023-10-10T22:45:24.102Z,9.00
2023-10-10T22:47:54.363Z,7.00
2023-10-10T22:50:21.973Z,7.40
2023-10-10T22:52:53.348Z,7.60
2023-10-10T22:55:21.195Z,7.00
2023-10-10T22:57:51.050Z,7.10
2023-10-10T23:00:26.327Z,8.30
2023-10-10T23:02:58.911Z,7.70
2023-10-10T23:05:27.893Z,8.90
2023-10-10T23:07:58.097Z,8.40
2023-10-10T23:10:24.715Z,7.00
2023-10-10T23:12:53.101Z,6.90
2023-10-10T23:15:27.357Z,6.50
2023-10-10T23:18:00.093Z,6.10
2023-10-10T23:20:28.695Z,8.20
2023-10-10T23:22:57.447Z,7.20
2023-10-10T23:25:26.310Z,7.10
2023-10-10T23:27:57.056Z,7.50
2023-10-10T23:30:29.578Z,9.00
2023-10-10T23:32:59.500Z,6.40
2023-10-10T23:35:27.279Z,6.70
2023-10-10T23:38:00.829Z,10.70
2023-10-10T23:40:45.371Z,7.20
2023-10-10T23:43:21.741Z,6.30
2023-10-10T23:45:57.246Z,6.40
2023-10-10T23:48:31.087Z,8.20
2023-10-10T23:50:59.635Z,8.20
2023-10-10T23:53:26.643Z,7.90
2023-10-10T23:55:59.487Z,7.10
2023-10-10T23:58:26.818Z,7.10
